sensor_id;sensor_type;location;lat;lon;timestamp;P1;P2;P0
13030;PMS7003;6582;54.644;9.760;2023-05-10T00:00:07;175.2;174.7;
13030;PMS7003;6582;54.644;9.760;2023-05-10T00:05:02;163.3;162.9;
13030;PMS7003;6582;54.644;9.760;2023-05-10T00:10:06;154.2;153.9;
13030;PMS7003;6582;54.644;9.760;2023-05-10T00:15:02;148.9;148.5;
13030;PMS7003;6582;54.644;9.760;2023-05-10T00:20:01;145.7;145.0;
13030;PMS7003;6582;54.644;9.760;2023-05-10T00:25:02;145.1;143.9;
13030;PMS7003;6582;54.644;9.760;2023-05-10T00:30:02;146.6;144.6;
13030;PMS7003;6582;54.644;9.760;2023-05-10T00:40:02;144.3;141.9;
13030;PMS7003;6582;54.644;9.760;2023-05-10T00:45:01;133.3;130.6;
13030;PMS7003;6582;54.644;9.760;2023-05-10T00:50:01;125.8;123.5;
13030;PMS7003;6582;54.644;9.760;2023-05-10T00:55:01;116.0;114.4;
13030;PMS7003;6582;54.644;9.760;2023-05-10T01:00:02;106.4;105.2;
13030;PMS7003;6582;54.644;9.760;2023-05-10T01:05:02;99.3;97.9;
13030;PMS7003;6582;54.644;9.760;2023-05-10T01:10:01;95.9;94.2;
13030;PMS7003;6582;54.644;9.760;2023-05-10T01:15:06;92.7;90.0;
13030;PMS7003;6582;54.644;9.760;2023-05-10T01:20:01;90.4;86.5;
13030;PMS7003;6582;54.644;9.760;2023-05-10T01:25:18;89.2;84.5;
13030;PMS7003;6582;54.644;9.760;2023-05-10T01:40:08;86.8;76.6;
13030;PMS7003;6582;54.644;9.760;2023-05-10T01:45:03;87.8;78.2;
13030;PMS7003;6582;54.644;9.760;2023-05-10T01:50:10;88.5;78.8;
13030;PMS7003;6582;54.644;9.760;2023-05-10T01:55:02;88.8;78.5;
13030;PMS7003;6582;54.644;9.760;2023-05-10T02:00:07;88.7;77.3;
13030;PMS7003;6582;54.644;9.760;2023-05-10T02:05:02;88.9;77.5;
13030;PMS7003;6582;54.644;9.760;2023-05-10T02:10:04;89.9;78.6;
13030;PMS7003;6582;54.644;9.760;2023-05-10T02:15:07;89.7;78.2;
13030;PMS7003;6582;54.644;9.760;2023-05-10T02:20:02;88.8;77.2;
13030;PMS7003;6582;54.644;9.760;2023-05-10T02:25:02;88.1;76.6;
13030;PMS7003;6582;54.644;9.760;2023-05-10T02:30:01;87.7;75.0;
13030;PMS7003;6582;54.644;9.760;2023-05-10T02:35:02;84.4;70.3;
13030;PMS7003;6582;54.644;9.760;2023-05-10T02:40:07;81.6;66.1;
13030;PMS7003;6582;54.644;9.760;2023-05-10T02:45:03;79.6;62.9;
13030;PMS7003;6582;54.644;9.760;2023-05-10T02:50:01;77.5;60.5;
13030;PMS7003;6582;54.644;9.760;2023-05-10T02:55:02;74.7;57.5;
13030;PMS7003;6582;54.644;9.760;2023-05-10T03:00:02;74.3;56.8;
13030;PMS7003;6582;54.644;9.760;2023-05-10T03:05:02;75.2;57.7;
13030;PMS7003;6582;54.644;9.760;2023-05-10T03:10:01;74.6;57.8;
13030;PMS7003;6582;54.644;9.760;2023-05-10T03:15:13;74.1;57.6;
13030;PMS7003;6582;54.644;9.760;2023-05-10T03:20:03;73.2;57.6;
13030;PMS7003;6582;54.644;9.760;2023-05-10T03:25:17;72.6;57.4;
13030;PMS7003;6582;54.644;9.760;2023-05-10T03:30:12;71.5;56.7;
13030;PMS7003;6582;54.644;9.760;2023-05-10T03:35:09;71.8;56.8;
13030;PMS7003;6582;54.644;9.760;2023-05-10T03:40:02;71.9;56.6;
13030;PMS7003;6582;54.644;9.760;2023-05-10T03:45:02;73.2;57.2;
13030;PMS7003;6582;54.644;9.760;2023-05-10T03:50:02;74.1;57.8;
13030;PMS7003;6582;54.644;9.760;2023-05-10T03:55:01;74.3;58.2;
13030;PMS7003;6582;54.644;9.760;2023-05-10T04:00:03;74.2;58.5;
13030;PMS7003;6582;54.644;9.760;2023-05-10T04:10:01;74.8;60.0;
13030;PMS7003;6582;54.644;9.760;2023-05-10T04:15:01;74.0;59.4;
13030;PMS7003;6582;54.644;9.760;2023-05-10T04:20:03;73.5;58.5;
13030;PMS7003;6582;54.644;9.760;2023-05-10T04:25:01;73.6;58.7;
13030;PMS7003;6582;54.644;9.760;2023-05-10T04:30:02;73.8;58.4;
13030;PMS7003;6582;54.644;9.760;2023-05-10T04:35:01;74.5;58.9;
13030;PMS7003;6582;54.644;9.760;2023-05-10T04:40:02;75.3;60.1;
13030;PMS7003;6582;54.644;9.760;2023-05-10T04:45:07;75.7;61.0;
13030;PMS7003;6582;54.644;9.760;2023-05-10T04:50:01;77.4;62.4;
13030;PMS7003;6582;54.644;9.760;2023-05-10T04:55:07;77.5;63.0;
13030;PMS7003;6582;54.644;9.760;2023-05-10T05:00:02;76.5;62.3;
13030;PMS7003;6582;54.644;9.760;2023-05-10T05:05:06;76.7;62.0;
13030;PMS7003;6582;54.644;9.760;2023-05-10T05:10:04;76.8;62.2;
13030;PMS7003;6582;54.644;9.760;2023-05-10T05:15:02;76.0;61.3;
13030;PMS7003;6582;54.644;9.760;2023-05-10T05:20:02;77.1;62.6;
13030;PMS7003;6582;54.644;9.760;2023-05-10T05:25:07;78.6;64.5;
13030;PMS7003;6582;54.644;9.760;2023-05-10T05:30:01;79.6;66.8;
13030;PMS7003;6582;54.644;9.760;2023-05-10T05:35:04;84.3;72.8;
13030;PMS7003;6582;54.644;9.760;2023-05-10T05:40:01;85.4;74.8;
13030;PMS7003;6582;54.644;9.760;2023-05-10T05:45:06;86.1;76.1;
13030;PMS7003;6582;54.644;9.760;2023-05-10T05:50:02;87.1;77.2;
13030;PMS7003;6582;54.644;9.760;2023-05-10T05:55:01;87.8;79.2;
13030;PMS7003;6582;54.644;9.760;2023-05-10T06:00:02;85.4;78.0;
13030;PMS7003;6582;54.644;9.760;2023-05-10T06:05:02;85.5;79.0;
13030;PMS7003;6582;54.644;9.760;2023-05-10T06:10:01;87.1;81.5;
13030;PMS7003;6582;54.644;9.760;2023-05-10T06:15:06;87.4;83.1;
13030;PMS7003;6582;54.644;9.760;2023-05-10T06:20:01;87.0;82.2;
13030;PMS7003;6582;54.644;9.760;2023-05-10T06:25:02;86.4;81.4;
13030;PMS7003;6582;54.644;9.760;2023-05-10T06:30:04;86.4;81.2;
13030;PMS7003;6582;54.644;9.760;2023-05-10T06:35:01;84.6;79.2;
13030;PMS7003;6582;54.644;9.760;2023-05-10T06:45:02;84.5;78.4;
13030;PMS7003;6582;54.644;9.760;2023-05-10T06:55:02;84.2;78.8;
13030;PMS7003;6582;54.644;9.760;2023-05-10T07:00:02;85.0;80.1;
13030;PMS7003;6582;54.644;9.760;2023-05-10T07:05:04;85.4;81.2;
13030;PMS7003;6582;54.644;9.760;2023-05-10T07:15:02;84.8;82.2;
13030;PMS7003;6582;54.644;9.760;2023-05-10T07:20:02;84.9;82.2;
13030;PMS7003;6582;54.644;9.760;2023-05-10T07:25:03;84.4;80.5;
13030;PMS7003;6582;54.644;9.760;2023-05-10T07:30:01;84.6;80.8;
13030;PMS7003;6582;54.644;9.760;2023-05-10T07:35:07;84.7;80.9;
13030;PMS7003;6582;54.644;9.760;2023-05-10T07:45:01;85.2;81.0;
13030;PMS7003;6582;54.644;9.760;2023-05-10T07:50:01;84.6;81.0;
13030;PMS7003;6582;54.644;9.760;2023-05-10T07:55:02;84.4;79.5;
13030;PMS7003;6582;54.644;9.760;2023-05-10T08:00:07;84.0;79.3;
13030;PMS7003;6582;54.644;9.760;2023-05-10T08:05:07;83.6;78.6;
13030;PMS7003;6582;54.644;9.760;2023-05-10T08:10:02;87.5;81.3;
13030;PMS7003;6582;54.644;9.760;2023-05-10T08:15:01;86.2;79.2;
13030;PMS7003;6582;54.644;9.760;2023-05-10T08:25:11;90.5;83.7;
13030;PMS7003;6582;54.644;9.760;2023-05-10T08:30:01;94.8;87.0;
13030;PMS7003;6582;54.644;9.760;2023-05-10T08:35:01;97.8;89.5;
13030;PMS7003;6582;54.644;9.760;2023-05-10T08:40:01;96.3;88.3;
13030;PMS7003;6582;54.644;9.760;2023-05-10T08:45:07;102.6;94.6;
13030;PMS7003;6582;54.644;9.760;2023-05-10T08:50:02;102.8;94.4;
13030;PMS7003;6582;54.644;9.760;2023-05-10T08:55:06;103.3;94.8;
13030;PMS7003;6582;54.644;9.760;2023-05-10T09:00:06;102.5;93.9;
13030;PMS7003;6582;54.644;9.760;2023-05-10T09:05:12;105.4;96.5;
13030;PMS7003;6582;54.644;9.760;2023-05-10T09:10:01;111.1;103.0;
13030;PMS7003;6582;54.644;9.760;2023-05-10T09:15:02;111.5;103.9;
13030;PMS7003;6582;54.644;9.760;2023-05-10T09:25:09;112.7;105.3;
13030;PMS7003;6582;54.644;9.760;2023-05-10T09:30:03;120.0;113.2;
13030;PMS7003;6582;54.644;9.760;2023-05-10T09:50:03;175.4;168.2;
13030;PMS7003;6582;54.644;9.760;2023-05-10T09:55:03;172.5;164.4;
13030;PMS7003;6582;54.644;9.760;2023-05-10T10:00:02;159.5;151.0;
13030;PMS7003;6582;54.644;9.760;2023-05-10T10:05:02;157.2;149.3;
13030;PMS7003;6582;54.644;9.760;2023-05-10T10:10:02;143.7;137.0;
13030;PMS7003;6582;54.644;9.760;2023-05-10T10:15:01;127.0;119.9;
13030;PMS7003;6582;54.644;9.760;2023-05-10T10:20:02;110.7;103.8;
13030;PMS7003;6582;54.644;9.760;2023-05-10T10:25:07;103.4;96.2;
13030;PMS7003;6582;54.644;9.760;2023-05-10T10:30:04;90.9;83.4;
13030;PMS7003;6582;54.644;9.760;2023-05-10T10:35:01;92.2;83.4;
13030;PMS7003;6582;54.644;9.760;2023-05-10T10:40:07;91.4;83.2;
13030;PMS7003;6582;54.644;9.760;2023-05-10T11:20:09;87.8;77.6;
13030;PMS7003;6582;54.644;9.760;2023-05-10T11:25:07;87.2;79.1;
13030;PMS7003;6582;54.644;9.760;2023-05-10T11:30:10;87.5;78.8;
13030;PMS7003;6582;54.644;9.760;2023-05-10T11:35:06;88.9;79.9;
13030;PMS7003;6582;54.644;9.760;2023-05-10T11:40:02;88.2;80.0;
13030;PMS7003;6582;54.644;9.760;2023-05-10T11:45:02;87.2;79.5;
13030;PMS7003;6582;54.644;9.760;2023-05-10T11:50:01;87.6;79.6;
13030;PMS7003;6582;54.644;9.760;2023-05-10T11:55:02;88.5;80.7;
13030;PMS7003;6582;54.644;9.760;2023-05-10T12:00:02;87.9;80.2;
13030;PMS7003;6582;54.644;9.760;2023-05-10T12:05:02;89.7;81.2;
13030;PMS7003;6582;54.644;9.760;2023-05-10T12:10:10;91.4;82.7;
13030;PMS7003;6582;54.644;9.760;2023-05-10T12:15:02;91.0;82.2;
13030;PMS7003;6582;54.644;9.760;2023-05-10T12:40:01;86.8;83.0;
13030;PMS7003;6582;54.644;9.760;2023-05-10T12:45:03;84.1;81.0;
13030;PMS7003;6582;54.644;9.760;2023-05-10T12:50:02;82.9;78.0;
13030;PMS7003;6582;54.644;9.760;2023-05-10T12:55:01;82.2;78.1;
13030;PMS7003;6582;54.644;9.760;2023-05-10T13:00:01;81.4;77.3;
13030;PMS7003;6582;54.644;9.760;2023-05-10T13:05:01;79.8;75.8;
13030;PMS7003;6582;54.644;9.760;2023-05-10T13:10:01;79.4;75.4;
13030;PMS7003;6582;54.644;9.760;2023-05-10T13:15:02;79.3;76.1;
13030;PMS7003;6582;54.644;9.760;2023-05-10T13:20:07;78.9;75.0;
13030;PMS7003;6582;54.644;9.760;2023-05-10T13:25:07;78.4;74.2;
13030;PMS7003;6582;54.644;9.760;2023-05-10T13:30:02;77.7;72.8;
13030;PMS7003;6582;54.644;9.760;2023-05-10T13:35:01;81.4;75.5;
13030;PMS7003;6582;54.644;9.760;2023-05-10T13:40:06;80.3;72.8;
13030;PMS7003;6582;54.644;9.760;2023-05-10T13:45:06;79.6;70.8;
13030;PMS7003;6582;54.644;9.760;2023-05-10T13:50:01;79.7;70.2;
13030;PMS7003;6582;54.644;9.760;2023-05-10T13:55:08;80.0;70.0;
13030;PMS7003;6582;54.644;9.760;2023-05-10T14:00:01;77.3;67.6;
13030;PMS7003;6582;54.644;9.760;2023-05-10T14:05:01;78.4;69.7;
13030;PMS7003;6582;54.644;9.760;2023-05-10T14:10:07;80.0;72.0;
13030;PMS7003;6582;54.644;9.760;2023-05-10T14:15:01;80.3;72.6;
13030;PMS7003;6582;54.644;9.760;2023-05-10T14:20:02;80.6;73.4;
13030;PMS7003;6582;54.644;9.760;2023-05-10T14:25:01;79.6;72.0;
13030;PMS7003;6582;54.644;9.760;2023-05-10T14:30:01;81.5;75.1;
13030;PMS7003;6582;54.644;9.760;2023-05-10T14:35:02;81.9;76.8;
13030;PMS7003;6582;54.644;9.760;2023-05-10T14:40:02;83.2;79.4;
13030;PMS7003;6582;54.644;9.760;2023-05-10T14:45:02;84.1;81.0;
13030;PMS7003;6582;54.644;9.760;2023-05-10T14:50:01;84.6;82.6;
13030;PMS7003;6582;54.644;9.760;2023-05-10T14:55:01;82.8;80.5;
13030;PMS7003;6582;54.644;9.760;2023-05-10T15:00:03;84.8;82.6;
13030;PMS7003;6582;54.644;9.760;2023-05-10T15:05:03;85.0;82.9;
13030;PMS7003;6582;54.644;9.760;2023-05-10T15:10:02;85.7;83.4;
13030;PMS7003;6582;54.644;9.760;2023-05-10T15:15:01;85.8;83.2;
13030;PMS7003;6582;54.644;9.760;2023-05-10T15:20:02;86.5;83.5;
13030;PMS7003;6582;54.644;9.760;2023-05-10T15:25:11;83.7;80.8;
13030;PMS7003;6582;54.644;9.760;2023-05-10T15:30:12;83.0;78.9;
13030;PMS7003;6582;54.644;9.760;2023-05-10T15:35:03;81.9;78.0;
13030;PMS7003;6582;54.644;9.760;2023-05-10T15:40:03;81.5;77.8;
13030;PMS7003;6582;54.644;9.760;2023-05-10T15:45:06;81.0;77.4;
13030;PMS7003;6582;54.644;9.760;2023-05-10T15:50:02;82.4;78.6;
13030;PMS7003;6582;54.644;9.760;2023-05-10T15:55:02;92.8;89.6;
13030;PMS7003;6582;54.644;9.760;2023-05-10T16:00:01;99.8;96.0;
13030;PMS7003;6582;54.644;9.760;2023-05-10T16:05:02;107.1;104.0;
13030;PMS7003;6582;54.644;9.760;2023-05-10T16:10:02;116.2;112.9;
13030;PMS7003;6582;54.644;9.760;2023-05-10T16:15:07;120.0;115.9;
13030;PMS7003;6582;54.644;9.760;2023-05-10T16:20:05;126.4;122.5;
13030;PMS7003;6582;54.644;9.760;2023-05-10T16:25:01;146.9;143.7;
13030;PMS7003;6582;54.644;9.760;2023-05-10T16:30:03;168.6;165.4;
13030;PMS7003;6582;54.644;9.760;2023-05-10T16:35:03;185.6;183.3;
13030;PMS7003;6582;54.644;9.760;2023-05-10T16:40:07;208.5;207.1;
13030;PMS7003;6582;54.644;9.760;2023-05-10T16:45:02;215.8;214.7;
13030;PMS7003;6582;54.644;9.760;2023-05-10T16:50:06;212.0;210.9;
13030;PMS7003;6582;54.644;9.760;2023-05-10T16:55:07;197.8;196.4;
13030;PMS7003;6582;54.644;9.760;2023-05-10T17:00:02;196.4;194.4;
13030;PMS7003;6582;54.644;9.760;2023-05-10T17:05:02;186.2;184.1;
13030;PMS7003;6582;54.644;9.760;2023-05-10T17:10:02;175.6;173.3;
13030;PMS7003;6582;54.644;9.760;2023-05-10T17:15:12;163.6;161.6;
13030;PMS7003;6582;54.644;9.760;2023-05-10T17:20:06;156.6;154.7;
13030;PMS7003;6582;54.644;9.760;2023-05-10T17:25:07;141.7;139.5;
13030;PMS7003;6582;54.644;9.760;2023-05-10T17:30:12;132.0;129.6;
13030;PMS7003;6582;54.644;9.760;2023-05-10T17:35:01;126.5;123.6;
13030;PMS7003;6582;54.644;9.760;2023-05-10T17:40:01;123.3;120.0;
13030;PMS7003;6582;54.644;9.760;2023-05-10T17:45:06;122.8;118.9;
13030;PMS7003;6582;54.644;9.760;2023-05-10T17:50:01;120.3;116.4;
13030;PMS7003;6582;54.644;9.760;2023-05-10T17:55:02;121.4;117.2;
13030;PMS7003;6582;54.644;9.760;2023-05-10T18:00:01;119.6;115.3;
13030;PMS7003;6582;54.644;9.760;2023-05-10T18:05:03;120.2;115.4;
13030;PMS7003;6582;54.644;9.760;2023-05-10T18:10:02;119.6;115.1;
13030;PMS7003;6582;54.644;9.760;2023-05-10T18:15:01;119.7;115.8;
13030;PMS7003;6582;54.644;9.760;2023-05-10T18:20:07;122.4;118.0;
13030;PMS7003;6582;54.644;9.760;2023-05-10T18:25:01;124.0;119.2;
13030;PMS7003;6582;54.644;9.760;2023-05-10T18:30:02;114.8;109.2;
13030;PMS7003;6582;54.644;9.760;2023-05-10T18:35:07;108.8;102.2;
13030;PMS7003;6582;54.644;9.760;2023-05-10T18:40:02;101.5;93.4;
13030;PMS7003;6582;54.644;9.760;2023-05-10T18:45:01;92.2;84.3;
13030;PMS7003;6582;54.644;9.760;2023-05-10T18:50:02;87.9;79.1;
13030;PMS7003;6582;54.644;9.760;2023-05-10T18:55:02;104.0;95.6;
13030;PMS7003;6582;54.644;9.760;2023-05-10T19:00:01;104.8;97.0;
13030;PMS7003;6582;54.644;9.760;2023-05-10T19:05:02;104.0;96.1;
13030;PMS7003;6582;54.644;9.760;2023-05-10T19:10:01;100.8;92.1;
13030;PMS7003;6582;54.644;9.760;2023-05-10T19:15:02;96.9;88.6;
13030;PMS7003;6582;54.644;9.760;2023-05-10T19:20:10;80.6;71.2;
13030;PMS7003;6582;54.644;9.760;2023-05-10T19:25:01;78.5;68.0;
13030;PMS7003;6582;54.644;9.760;2023-05-10T19:30:01;79.2;68.7;
13030;PMS7003;6582;54.644;9.760;2023-05-10T19:35:01;79.0;68.9;
13030;PMS7003;6582;54.644;9.760;2023-05-10T19:40:02;93.1;83.6;
13030;PMS7003;6582;54.644;9.760;2023-05-10T19:45:01;93.6;84.6;
13030;PMS7003;6582;54.644;9.760;2023-05-10T19:50:02;95.2;86.2;
13030;PMS7003;6582;54.644;9.760;2023-05-10T19:55:01;96.3;87.2;
13030;PMS7003;6582;54.644;9.760;2023-05-10T20:00:01;98.9;90.0;
13030;PMS7003;6582;54.644;9.760;2023-05-10T20:05:01;85.4;76.4;
13030;PMS7003;6582;54.644;9.760;2023-05-10T20:10:01;87.1;79.2;
13030;PMS7003;6582;54.644;9.760;2023-05-10T20:15:01;89.0;82.1;
13030;PMS7003;6582;54.644;9.760;2023-05-10T20:20:17;88.8;82.4;
13030;PMS7003;6582;54.644;9.760;2023-05-10T20:25:02;89.5;83.5;
13030;PMS7003;6582;54.644;9.760;2023-05-10T20:30:06;92.6;86.6;
13030;PMS7003;6582;54.644;9.760;2023-05-10T20:35:02;93.6;87.5;
13030;PMS7003;6582;54.644;9.760;2023-05-10T20:40:03;95.4;88.8;
13030;PMS7003;6582;54.644;9.760;2023-05-10T20:45:07;100.2;92.6;
13030;PMS7003;6582;54.644;9.760;2023-05-10T20:50:11;101.8;93.8;
13030;PMS7003;6582;54.644;9.760;2023-05-10T20:55:02;103.6;95.4;
13030;PMS7003;6582;54.644;9.760;2023-05-10T21:00:12;108.3;99.6;
13030;PMS7003;6582;54.644;9.760;2023-05-10T21:05:03;111.4;102.5;
13030;PMS7003;6582;54.644;9.760;2023-05-10T21:10:06;113.2;105.0;
13030;PMS7003;6582;54.644;9.760;2023-05-10T21:15:07;117.8;109.8;
13030;PMS7003;6582;54.644;9.760;2023-05-10T21:20:01;127.6;119.5;
13030;PMS7003;6582;54.644;9.760;2023-05-10T21:25:01;140.2;131.8;
13030;PMS7003;6582;54.644;9.760;2023-05-10T21:30:01;152.3;144.7;
13030;PMS7003;6582;54.644;9.760;2023-05-10T21:35:01;156.4;149.6;
13030;PMS7003;6582;54.644;9.760;2023-05-10T21:40:02;145.3;137.2;
13030;PMS7003;6582;54.644;9.760;2023-05-10T21:45:01;128.3;118.5;
13030;PMS7003;6582;54.644;9.760;2023-05-10T21:50:02;106.2;95.4;
13030;PMS7003;6582;54.644;9.760;2023-05-10T21:55:08;85.2;71.9;
13030;PMS7003;6582;54.644;9.760;2023-05-10T22:00:07;72.0;56.4;
13030;PMS7003;6582;54.644;9.760;2023-05-10T22:05:11;72.8;56.7;
13030;PMS7003;6582;54.644;9.760;2023-05-10T22:10:01;75.6;59.8;
13030;PMS7003;6582;54.644;9.760;2023-05-10T22:15:11;78.7;63.8;
13030;PMS7003;6582;54.644;9.760;2023-05-10T22:20:01;79.1;65.2;
13030;PMS7003;6582;54.644;9.760;2023-05-10T22:25:01;83.4;71.3;
13030;PMS7003;6582;54.644;9.760;2023-05-10T22:30:02;88.0;77.6;
13030;PMS7003;6582;54.644;9.760;2023-05-10T22:35:01;87.4;77.6;
13030;PMS7003;6582;54.644;9.760;2023-05-10T22:40:01;88.1;79.2;
13030;PMS7003;6582;54.644;9.760;2023-05-10T22:45:01;90.3;82.1;
13030;PMS7003;6582;54.644;9.760;2023-05-10T22:50:01;89.4;81.8;
13030;PMS7003;6582;54.644;9.760;2023-05-10T22:55:01;89.1;81.6;
13030;PMS7003;6582;54.644;9.760;2023-05-10T23:00:02;91.3;84.9;
13030;PMS7003;6582;54.644;9.760;2023-05-10T23:05:02;91.5;84.4;
13030;PMS7003;6582;54.644;9.760;2023-05-10T23:10:01;92.6;86.4;
13030;PMS7003;6582;54.644;9.760;2023-05-10T23:15:01;93.7;86.4;
13030;PMS7003;6582;54.644;9.760;2023-05-10T23:20:01;94.3;86.1;
13030;PMS7003;6582;54.644;9.760;2023-05-10T23:25:06;94.0;85.1;
13030;PMS7003;6582;54.644;9.760;2023-05-10T23:30:12;94.0;85.3;
13030;PMS7003;6582;54.644;9.760;2023-05-10T23:35:07;94.4;84.7;
13030;PMS7003;6582;54.644;9.760;2023-05-10T23:40:01;95.5;85.3;
13030;PMS7003;6582;54.644;9.760;2023-05-10T23:45:01;96.7;87.2;
13030;PMS7003;6582;54.644;9.760;2023-05-10T23:50:02;98.6;88.7;
13030;PMS7003;6582;54.644;9.760;2023-05-10T23:55:02;99.9;89.8;
